Time;durP1;ratioP1;P1;durP2;ratioP2;P2;SDS_P1;SDS_P2;PMS_P1;PMS_P2;Temp;Humidity;BMP_temperature;BMP_pressure;BME280_temperature;BME280_humidity;BME280_pressure;Samples;Min_cycle;Max_cycle;Signal;HPM_P1;HPM_P2
2021/04/01 00:02:24;;;;;;;9.60;7.50;;;;;;;11.00;49.60;99173.66;5091664;28;42459;-74
2021/04/01 00:04:53;;;;;;;10.47;7.50;;;;;;;10.95;49.77;99173.13;5091859;28;43204;-73
2021/04/01 00:07:20;;;;;;;9.90;7.57;;;;;;;10.91;49.54;99174.22;5109857;27;41936;-74
2021/04/01 00:09:48;;;;;;;11.77;7.87;;;;;;;10.86;49.73;99175.44;5112428;28;40656;-73
2021/04/01 00:12:21;;;;;;;8.87;7.27;;;;;;;10.76;49.86;99165.38;5095194;28;41467;-75
2021/04/01 00:14:48;;;;;;;11.73;7.60;;;;;;;10.79;49.93;99170.50;5112896;28;43416;-74
2021/04/01 00:17:16;;;;;;;13.50;8.40;;;;;;;10.74;50.27;99169.06;5094760;28;42844;-74
2021/04/01 00:19:42;;;;;;;14.17;10.37;;;;;;;10.69;50.85;99161.38;5112418;28;39920;-74
2021/04/01 00:22:09;;;;;;;12.23;7.90;;;;;;;10.66;51.46;99148.31;5112999;28;41481;-73
2021/04/01 00:24:37;;;;;;;11.97;9.10;;;;;;;10.52;52.27;99126.22;5113860;28;43216;-74
2021/04/01 00:27:05;;;;;;;11.23;7.90;;;;;;;10.62;52.02;99143.31;5112239;28;42212;-73
2021/04/01 00:29:33;;;;;;;10.07;7.50;;;;;;;10.60;51.70;99147.81;5112821;28;39742;-73
2021/04/01 00:31:59;;;;;;;10.37;8.07;;;;;;;10.58;51.73;99147.06;5112737;28;42641;-74
2021/04/01 00:34:26;;;;;;;9.03;7.23;;;;;;;10.56;51.55;99152.44;5112655;28;42520;-74
2021/04/01 00:36:53;;;;;;;11.60;7.80;;;;;;;10.53;51.27;99152.59;5094028;28;42276;-75
2021/04/01 00:39:20;;;;;;;9.73;7.63;;;;;;;10.49;51.05;99152.91;5112851;28;40435;-73
2021/04/01 00:41:47;;;;;;;8.50;7.00;;;;;;;10.43;50.95;99165.53;5112881;28;42175;-74
2021/04/01 00:44:16;;;;;;;9.20;6.80;;;;;;;10.36;50.93;99161.53;5094909;28;42418;-72
2021/04/01 00:46:48;;;;;;;10.37;7.30;;;;;;;10.31;51.17;99152.13;5094017;28;41870;-72
2021/04/01 00:49:15;;;;;;;10.73;7.50;;;;;;;10.25;51.15;99153.34;5095151;28;38740;-74
2021/04/01 00:51:42;;;;;;;10.37;7.20;;;;;;;10.20;51.07;99151.88;5095037;28;40872;-74
2021/04/01 00:54:09;;;;;;;9.00;7.23;;;;;;;10.16;51.06;99152.97;5111875;28;42569;-73
2021/04/01 00:56:37;;;;;;;8.40;6.90;;;;;;;10.11;51.27;99145.28;5093967;28;42128;-73
2021/04/01 00:59:06;;;;;;;12.53;7.97;;;;;;;10.06;51.32;99149.97;5112719;28;40546;-74
2021/04/01 01:01:42;;;;;;;13.47;7.93;;;;;;;10.00;51.81;99137.97;5093628;28;42446;-74
2021/04/01 01:04:10;;;;;;;8.43;7.17;;;;;;;9.93;51.42;99136.56;5111961;28;43453;-73
2021/04/01 01:06:38;;;;;;;17.97;10.70;;;;;;;9.89;54.07;99118.34;5112353;28;42293;-74
2021/04/01 01:09:06;;;;;;;12.07;9.13;;;;;;;9.77;53.54;99108.44;5093996;28;40452;-73
2021/04/01 01:11:33;;;;;;;14.60;9.63;;;;;;;9.82;54.93;99111.66;5093620;28;41605;-74
2021/04/01 01:14:02;;;;;;;15.47;10.10;;;;;;;9.80;55.67;99105.59;5111804;28;43510;-72
2021/04/01 01:16:29;;;;;;;12.90;9.37;;;;;;;9.70;54.73;99097.31;5112248;28;41966;-73
2021/04/01 01:18:56;;;;;;;10.93;8.37;;;;;;;9.76;54.14;99110.22;5110891;28;40689;-73
2021/04/01 01:21:24;;;;;;;12.57;8.90;;;;;;;9.71;54.29;99109.59;5111756;28;42763;-73
2021/04/01 01:23:54;;;;;;;14.17;8.77;;;;;;;9.70;54.20;99113.19;5093311;28;43582;-74
2021/04/01 01:26:22;;;;;;;12.60;8.03;;;;;;;9.68;53.98;99110.63;5111619;28;42975;-73
2021/04/01 01:28:49;;;;;;;12.63;9.00;;;;;;;9.68;54.21;99107.13;5093134;28;39200;-73
2021/04/01 01:31:19;;;;;;;12.00;8.80;;;;;;;9.64;53.95;99114.34;5093846;28;42407;-74
2021/04/01 01:33:47;;;;;;;10.27;7.40;;;;;;;9.60;53.56;99118.13;5111548;28;44034;-73
2021/04/01 01:36:15;;;;;;;14.13;7.90;;;;;;;9.55;53.48;99114.00;5093599;28;42860;-73
2021/04/01 01:38:42;;;;;;;8.87;6.70;;;;;;;9.45;53.61;99102.25;5124785;27;39632;-73
2021/04/01 01:41:09;;;;;;;9.33;7.27;;;;;;;9.51;53.77;99113.34;5114949;27;40764;-74
2021/04/01 01:43:38;;;;;;;10.83;8.37;;;;;;;9.48;53.95;99113.50;5097486;27;41733;-72
2021/04/01 01:46:05;;;;;;;8.90;7.40;;;;;;;9.44;53.60;99111.94;5109897;28;42344;-73
2021/04/01 01:48:32;;;;;;;10.77;7.27;;;;;;;9.41;53.59;99114.75;5111508;28;41419;-73
2021/04/01 01:51:01;;;;;;;11.07;7.53;;;;;;;9.37;53.66;99118.53;5112004;28;42452;-73
2021/04/01 01:53:29;;;;;;;10.50;7.80;;;;;;;9.17;53.63;99087.00;5111223;28;43548;-73
2021/04/01 01:55:56;;;;;;;12.60;8.37;;;;;;;9.27;54.44;99106.75;5111061;28;42966;-72
2021/04/01 01:58:23;;;;;;;14.10;8.17;;;;;;;9.21;54.49;99109.69;5111113;28;39814;-72
2021/04/01 02:00:54;;;;;;;12.90;9.10;;;;;;;9.10;54.28;99101.47;5093028;28;42345;-73
2021/04/01 02:03:23;;;;;;;13.17;10.07;;;;;;;9.12;54.41;99118.09;5111358;28;42561;-73
2021/04/01 02:05:51;;;;;;;9.83;7.73;;;;;;;9.08;54.22;99113.91;5111079;28;42014;-73
2021/04/01 02:08:19;;;;;;;10.50;8.30;;;;;;;9.05;54.23;99124.63;5093126;28;39897;-73
2021/04/01 02:10:48;;;;;;;13.50;9.47;;;;;;;9.00;54.76;99112.53;5092982;28;42803;-73
2021/04/01 02:13:17;;;;;;;11.97;9.60;;;;;;;8.96;55.06;99110.97;5092128;28;43231;-73
2021/04/01 02:15:46;;;;;;;12.43;8.73;;;;;;;8.95;55.75;99113.69;5093379;28;41876;-73
2021/04/01 02:18:17;;;;;;;9.20;7.97;;;;;;;8.92;55.30;99106.78;5093602;28;38989;-73
2021/04/01 02:20:46;;;;;;;10.60;8.17;;;;;;;8.87;55.44;99114.09;5092452;28;42310;-73
2021/04/01 02:23:15;;;;;;;11.97;8.53;;;;;;;8.86;57.43;99091.25;5092144;28;42861;-72
2021/04/01 02:25:43;;;;;;;11.67;9.13;;;;;;;8.73;57.03;99070.84;5110894;28;42310;-72
2021/04/01 02:28:11;;;;;;;11.70;7.50;;;;;;;8.81;56.57;99095.91;5093042;28;39115;-73
2021/04/01 02:30:40;;;;;;;11.00;8.17;;;;;;;8.78;56.16;99101.34;5081722;28;40766;-73
2021/04/01 02:33:08;;;;;;;12.10;8.60;;;;;;;8.77;55.90;99104.94;5104658;28;42927;-73
2021/04/01 02:35:36;;;;;;;9.80;7.57;;;;;;;8.73;55.67;99099.88;5122139;28;43210;-74
2021/04/01 02:38:04;;;;;;;11.80;8.10;;;;;;;8.63;55.97;99091.59;5122385;28;40850;-73
2021/04/01 02:40:32;;;;;;;12.23;7.43;;;;;;;8.68;55.69;99105.38;5103832;28;41966;-73
2021/04/01 02:42:59;;;;;;;9.23;7.13;;;;;;;8.61;55.69;99104.00;5122898;28;43242;-73
2021/04/01 02:45:26;;;;;;;9.83;7.30;;;;;;;8.60;57.00;99097.00;5101565;28;42551;-73
2021/04/01 02:47:53;;;;;;;9.73;7.97;;;;;;;8.59;56.59;99100.59;5110583;28;39729;-73
2021/04/01 02:50:21;;;;;;;11.30;8.03;;;;;;;8.56;56.64;99108.66;5110557;28;42345;-73
2021/04/01 02:52:49;;;;;;;10.73;7.67;;;;;;;8.52;56.19;99099.19;5110305;28;42824;-73
2021/04/01 02:55:17;;;;;;;10.37;7.53;;;;;;;8.49;56.11;99101.97;5110650;28;41499;-73
2021/04/01 02:57:44;;;;;;;8.33;7.13;;;;;;;8.45;56.00;99108.34;5110158;28;40503;-74
2021/04/01 03:00:15;;;;;;;8.77;7.43;;;;;;;8.41;56.10;99106.78;5091609;28;41724;-73
2021/04/01 03:02:45;;;;;;;11.20;7.30;;;;;;;8.39;57.38;99092.81;5109819;28;42415;-73
2021/04/01 03:05:13;;;;;;;11.37;7.87;;;;;;;8.35;57.01;99096.53;5091611;28;41914;-73
2021/04/01 03:07:40;;;;;;;15.70;9.83;;;;;;;8.32;57.21;99099.31;5092034;28;40622;-73
2021/04/01 03:10:11;;;;;;;10.30;7.90;;;;;;;8.28;57.15;99096.78;5091963;28;42284;-73
2021/04/01 03:12:39;;;;;;;10.47;7.87;;;;;;;8.24;56.71;99099.69;5109863;28;43332;-73
2021/04/01 03:15:10;;;;;;;9.53;7.67;;;;;;;8.15;56.85;99095.72;5092482;28;43011;-73
2021/04/01 03:17:38;;;;;;;10.77;8.07;;;;;;;8.06;56.67;99090.84;5072326;28;39295;-73
2021/04/01 03:20:06;;;;;;;13.87;9.70;;;;;;;8.14;57.13;99096.63;5055751;28;40799;-74
2021/04/01 03:22:33;;;;;;;11.73;7.43;;;;;;;8.10;57.09;99102.97;5071487;28;42739;-73
2021/04/01 03:25:02;;;;;;;10.07;6.93;;;;;;;8.06;56.89;99100.56;5072558;28;20226;-73
2021/04/01 03:27:30;;;;;;;7.67;6.07;;;;;;;8.03;56.75;99106.84;5089102;28;40908;-75
2021/04/01 03:30:06;;;;;;;10.80;8.43;;;;;;;7.99;57.17;99105.28;5109561;28;41688;-72
2021/04/01 03:32:35;;;;;;;9.80;7.30;;;;;;;7.97;57.08;99104.50;5092002;28;42750;-72
2021/04/01 03:35:03;;;;;;;8.67;7.10;;;;;;;7.93;57.12;99106.41;5109572;28;42299;-74
2021/04/01 03:37:30;;;;;;;11.53;7.17;;;;;;;7.90;57.30;99103.09;5091755;28;40361;-73
2021/04/01 03:39:58;;;;;;;8.90;7.00;;;;;;;7.87;57.21;99100.59;5092579;28;41592;-72
2021/04/01 03:42:25;;;;;;;11.53;7.80;;;;;;;7.88;57.06;99107.59;5093821;28;43156;-73
2021/04/01 03:44:53;;;;;;;9.43;7.03;;;;;;;7.85;57.35;99105.94;5095826;28;42135;-72
2021/04/01 03:47:21;;;;;;;10.07;7.67;;;;;;;7.83;57.68;99102.50;5095414;28;40596;-74
2021/04/01 03:49:48;;;;;;;9.90;7.70;;;;;;;7.80;57.86;99096.53;5094899;28;42187;-75
2021/04/01 03:52:15;;;;;;;9.93;6.93;;;;;;;7.77;57.95;99094.91;5112713;28;42310;-74
2021/04/01 03:54:44;;;;;;;9.80;7.17;;;;;;;7.80;58.75;99096.53;5113687;28;42070;-74
2021/04/01 03:57:12;;;;;;;8.87;7.07;;;;;;;7.83;60.44;99085.84;5094494;28;39796;-74
2021/04/01 03:59:44;;;;;;;14.33;10.00;;;;;;;7.80;60.92;99091.25;5095544;28;41795;-74
2021/04/01 04:02:44;;;;;;;18.40;9.77;;;;;;;7.75;60.64;99093.28;5112732;28;43755;-75
2021/04/01 04:05:18;;;;;;;12.43;9.33;;;;;;;7.76;59.76;99102.88;5094647;28;42034;-72
2021/04/01 04:08:11;;;;;;;10.17;7.73;;;;;;;7.71;59.52;99107.50;5113081;28;40789;-72
2021/04/01 04:10:44;;;;;;;11.77;7.83;;;;;;;7.67;59.28;99116.47;5079103;28;41753;-72
2021/04/01 04:13:16;;;;;;;9.93;7.50;;;;;;;7.60;59.19;99121.19;5112410;28;43252;-73
2021/04/01 04:15:43;;;;;;;9.40;7.73;;;;;;;7.55;58.84;99115.28;5112929;28;42883;-72
2021/04/01 04:18:11;;;;;;;10.27;7.30;;;;;;;7.48;58.88;99119.97;5095185;28;40169;-73
2021/04/01 04:20:38;;;;;;;14.53;9.87;;;;;;;7.42;59.74;99114.97;5112534;28;41665;-72
2021/04/01 04:23:08;;;;;;;11.43;7.87;;;;;;;7.39;59.63;99115.13;5112668;28;42687;-75
2021/04/01 04:25:36;;;;;;;8.37;7.20;;;;;;;7.32;60.01;99100.50;5094481;28;42928;-74
2021/04/01 04:28:19;;;;;;;10.80;8.13;;;;;;;7.34;59.97;99103.94;5077985;28;40102;-72
2021/04/01 04:30:46;;;;;;;11.77;9.47;;;;;;;7.31;60.38;99101.44;5094628;28;41481;-72
2021/04/01 04:33:14;;;;;;;10.47;7.07;;;;;;;7.24;60.63;99093.91;5094228;28;42825;-73
2021/04/01 04:35:41;;;;;;;13.53;10.20;;;;;;;7.26;60.40;99103.44;5112884;28;42953;-73
2021/04/01 04:38:08;;;;;;;10.43;8.17;;;;;;;7.24;60.54;99099.16;5094206;28;39684;-74
2021/04/01 04:40:35;;;;;;;12.07;8.23;;;;;;;7.24;60.36;99102.66;5112420;27;41410;-73
2021/04/01 04:43:03;;;;;;;12.23;8.23;;;;;;;7.21;60.33;99111.53;5085037;27;41925;-73
2021/04/01 04:45:30;;;;;;;10.00;7.90;;;;;;;7.19;60.30;99112.53;5133030;27;42912;-73
2021/04/01 04:47:57;;;;;;;13.10;8.63;;;;;;;7.17;60.74;99098.59;5113959;27;39970;-73
2021/04/01 04:50:25;;;;;;;10.97;7.87;;;;;;;7.11;60.58;99109.38;5094047;28;41199;-75
2021/04/01 04:52:52;;;;;;;10.30;7.17;;;;;;;7.15;61.75;99095.16;5093584;28;43263;-73
2021/04/01 04:55:20;;;;;;;9.03;6.97;;;;;;;7.13;61.09;99104.91;5094935;28;41656;-73
2021/04/01 04:57:51;;;;;;;10.50;7.50;;;;;;;7.14;60.97;99107.47;5077912;28;39255;-73
2021/04/01 05:06:03;;;;;;;10.80;7.23;;;;;;;7.07;60.84;99107.81;5111919;28;41993;-72
2021/04/01 05:08:30;;;;;;;8.73;7.23;;;;;;;7.08;60.67;99110.38;5093867;28;40508;-73
2021/04/01 05:10:57;;;;;;;8.30;6.23;;;;;;;7.09;60.48;99108.59;5112328;28;41557;-73
2021/04/01 05:13:24;;;;;;;9.03;7.30;;;;;;;7.06;60.20;99112.22;5111630;28;43345;-72
2021/04/01 05:15:51;;;;;;;8.60;6.30;;;;;;;7.12;60.66;99122.50;5111957;28;42285;-73
2021/04/01 05:18:25;;;;;;;9.03;7.03;;;;;;;7.14;61.59;99098.72;5111489;28;39870;-73
2021/04/01 05:20:53;;;;;;;11.90;8.57;;;;;;;7.15;61.14;99118.88;5094311;28;40779;-74
2021/04/01 05:23:32;;;;;;;9.67;7.47;;;;;;;7.13;61.00;99108.41;5111717;28;42690;-72
2021/04/01 05:26:25;;;;;;;11.13;8.80;;;;;;;7.24;60.58;99120.22;5093822;28;42882;-75
2021/04/01 05:28:57;;;;;;;11.73;7.90;;;;;;;7.29;60.64;99129.66;5111689;28;39896;-72
2021/04/01 05:31:24;;;;;;;10.43;8.13;;;;;;;7.33;60.73;99119.81;5093846;28;41552;-72
2021/04/01 05:33:51;;;;;;;11.13;7.97;;;;;;;7.41;60.45;99129.09;5111294;28;43355;-73
2021/04/01 05:36:22;;;;;;;10.27;7.90;;;;;;;7.48;60.31;99135.78;5111470;28;42811;-73
2021/04/01 05:38:52;;;;;;;9.97;7.50;;;;;;;7.56;60.01;99138.06;5093495;28;39316;-72
2021/04/01 05:41:22;;;;;;;10.43;7.83;;;;;;;7.65;59.60;99142.09;5093112;28;41383;-73
2021/04/01 05:43:52;;;;;;;9.00;7.27;;;;;;;7.73;59.58;99140.78;5092900;28;42752;-73
2021/04/01 05:46:23;;;;;;;12.07;8.43;;;;;;;7.82;60.22;99139.50;5111433;28;44128;-73
2021/04/01 06:03:06;;;;;;;12.33;9.10;;;;;;;8.73;59.34;99164.13;5071107;27;41707;-72
2021/04/01 06:05:35;;;;;;;9.30;7.23;;;;;;;8.86;59.55;99149.38;5111749;27;43419;-72
2021/04/01 06:08:07;;;;;;;10.23;7.80;;;;;;;9.00;59.24;99157.44;5091568;28;41765;-72
2021/04/01 06:10:36;;;;;;;10.87;7.80;;;;;;;9.12;58.44;99147.16;5110417;28;39753;-72
2021/04/01 06:13:08;;;;;;;16.00;8.87;;;;;;;9.32;58.81;99154.91;5107411;28;40757;-72
2021/04/01 06:15:36;;;;;;;12.77;7.60;;;;;;;9.54;58.57;99155.47;5107708;28;43423;-73
2021/04/01 06:18:10;;;;;;;13.40;8.63;;;;;;;9.76;58.36;99163.13;5088847;28;42770;-73
2021/04/01 06:20:38;;;;;;;12.83;8.30;;;;;;;9.93;58.15;99162.19;5107014;28;40771;-73
2021/04/01 06:23:06;;;;;;;16.13;9.07;;;;;;;10.08;57.85;99161.34;5105318;28;41625;-73
2021/04/01 06:25:38;;;;;;;12.97;8.60;;;;;;;10.20;57.74;99163.34;5088803;28;42653;-72
2021/04/01 06:28:07;;;;;;;13.53;8.50;;;;;;;10.34;57.20;99160.75;5107163;28;42079;-75
2021/04/01 06:30:48;;;;;;;11.77;7.80;;;;;;;10.47;56.92;99154.78;5089236;28;39812;-73
2021/04/01 06:33:16;;;;;;;12.80;7.70;;;;;;;10.61;56.80;99152.19;5105913;28;41566;-72
2021/04/01 06:35:47;;;;;;;11.73;8.43;;;;;;;10.69;56.63;99158.72;5106454;28;42630;-73
2021/04/01 06:41:10;;;;;;;12.70;7.70;;;;;;;10.99;56.33;99166.69;5090154;28;40502;-73
2021/04/01 06:43:58;;;;;;;15.33;8.43;;;;;;;11.19;55.79;99151.38;5088465;28;42647;-73
2021/04/01 06:46:27;;;;;;;15.80;9.23;;;;;;;11.38;55.46;99157.28;5087748;28;43552;-74
2021/04/01 06:51:51;;;;;;;14.80;10.10;;;;;;;11.84;54.20;99164.16;5106919;28;40606;-73
2021/04/01 06:54:27;;;;;;;17.93;9.97;;;;;;;12.11;53.75;99168.66;5107283;28;41196;-73
2021/04/01 06:57:10;;;;;;;17.13;9.70;;;;;;;12.45;53.35;99172.66;5088049;28;41843;-73
2021/04/01 06:59:51;;;;;;;12.33;7.80;;;;;;;12.83;52.50;99183.41;5071070;28;42153;-73
2021/04/01 07:02:24;;;;;;;14.87;8.47;;;;;;;13.18;51.76;99179.25;5106669;28;39660;-73
2021/04/01 07:04:55;;;;;;;13.67;8.20;;;;;;;13.51;50.96;99191.19;5088965;28;42146;-72
2021/04/01 07:07:24;;;;;;;14.33;8.83;;;;;;;13.87;50.12;99201.09;5104656;28;42305;-73
2021/04/01 07:10:08;;;;;;;12.07;7.83;;;;;;;14.22;48.93;99198.56;5105098;28;41969;-73
2021/04/01 07:12:40;;;;;;;15.83;9.73;;;;;;;14.61;48.14;99206.38;5086825;28;39690;-74
2021/04/01 07:15:12;;;;;;;17.17;8.70;;;;;;;15.05;47.16;99204.91;5089152;28;41603;-73
2021/04/01 07:17:42;;;;;;;11.20;8.13;;;;;;;15.49;46.19;99208.66;5070932;28;41688;-73
2021/04/01 07:20:31;;;;;;;14.50;8.83;;;;;;;15.68;46.47;99209.84;5104209;28;41547;-73
2021/04/01 07:23:25;;;;;;;13.77;8.47;;;;;;;16.42;45.45;99212.88;5104794;28;39699;-73
2021/04/01 07:32:06;;;;;;;17.33;8.63;;;;;;;16.76;44.38;99225.22;5088488;28;42177;-76
2021/04/01 07:34:46;;;;;;;17.03;8.83;;;;;;;16.74;44.87;99221.81;5106816;28;40949;-73
2021/04/01 07:48:47;;;;;;;12.97;7.80;;;;;;;16.78;45.69;99206.38;5104063;28;41612;-74
2021/04/01 07:51:28;;;;;;;11.70;8.20;;;;;;;17.73;44.83;99204.56;5085384;28;44300;-74
2021/04/01 07:53:56;;;;;;;14.53;8.57;;;;;;;19.36;41.68;99212.22;5071874;28;42129;-74
2021/04/01 07:56:28;;;;;;;11.03;8.50;;;;;;;21.06;37.78;99227.13;5105414;28;40615;-73
2021/04/01 07:59:12;;;;;;;17.37;8.90;;;;;;;22.94;34.64;99252.53;5102953;28;41791;-74
2021/04/01 08:01:51;;;;;;;12.73;8.60;;;;;;;24.95;32.35;99259.78;5106132;28;43999;-73
2021/04/01 08:04:18;;;;;;;14.53;7.40;;;;;;;26.71;28.64;99284.72;5105218;28;41791;-72
2021/04/01 08:06:45;;;;;;;13.97;7.43;;;;;;;27.91;27.04;99279.63;5087092;28;41618;-74
2021/04/01 08:09:18;;;;;;;14.00;8.47;;;;;;;28.17;26.44;99287.16;5105555;28;41512;-74
2021/04/01 08:11:48;;;;;;;12.30;8.13;;;;;;;28.71;25.84;99295.50;5087826;28;43016;-74
2021/04/01 08:14:17;;;;;;;14.43;7.60;;;;;;;28.92;25.32;99300.91;5104058;28;43280;-74
2021/04/01 08:16:53;;;;;;;15.23;7.87;;;;;;;28.85;25.14;99290.97;5087959;28;40968;-73
2021/04/01 08:19:24;;;;;;;20.90;8.30;;;;;;;28.41;25.17;99296.78;5104879;28;41535;-74
2021/04/01 08:21:52;;;;;;;11.00;7.43;;;;;;;28.12;25.46;99282.31;5104830;28;43061;-74
2021/04/01 08:24:23;;;;;;;12.27;7.27;;;;;;;28.00;25.38;99288.47;5108086;28;42573;-74
2021/04/01 08:27:03;;;;;;;11.67;7.70;;;;;;;28.03;25.22;99291.66;5108076;28;40448;-74
2021/04/01 08:32:46;;;;;;;10.83;7.60;;;;;;;29.41;24.39;99290.81;5111644;28;42779;-74
2021/04/01 08:35:14;;;;;;;13.03;8.23;;;;;;;29.89;23.24;99305.16;5095015;28;41284;-74
2021/04/01 08:37:53;;;;;;;14.27;7.90;;;;;;;30.46;22.84;99300.94;5111776;28;40950;-73
2021/04/01 08:40:20;;;;;;;12.43;7.90;;;;;;;30.79;22.14;99312.66;5110087;28;42489;-74
2021/04/01 08:43:33;;;;;;;16.23;8.60;;;;;;;31.54;20.87;99316.56;5092543;28;42611;-74
2021/04/01 08:46:10;;;;;;;16.20;7.77;;;;;;;32.32;20.17;99317.09;5074434;28;42944;-74
2021/04/01 08:49:02;;;;;;;13.67;8.10;;;;;;;32.61;19.83;99306.50;5093615;28;40951;-73
2021/04/01 08:51:55;;;;;;;11.47;7.23;;;;;;;33.42;19.84;99303.44;5075289;28;41805;-74
2021/04/01 08:54:26;;;;;;;11.63;8.03;;;;;;;34.80;18.74;99294.84;5093597;28;42542;-73
2021/04/01 08:57:00;;;;;;;11.33;7.50;;;;;;;35.96;17.42;99310.97;5111415;28;42812;-75
2021/04/01 08:59:38;;;;;;;13.52;7.38;;;;;;;36.71;17.50;99278.50;5111267;28;41815;-74
2021/04/01 09:02:10;;;;;;;9.88;7.10;;;;;;;36.80;17.37;99291.63;5072158;28;41420;-74
2021/04/01 09:04:46;;;;;;;10.73;7.33;;;;;;;36.72;16.98;99285.72;5111655;28;42377;-74
2021/04/01 09:07:17;;;;;;;13.87;7.77;;;;;;;36.81;16.65;99297.97;5094629;28;41560;-74
2021/04/01 09:09:49;;;;;;;12.95;7.50;;;;;;;37.31;16.55;99287.59;5111803;28;41001;-74
2021/04/01 09:12:22;;;;;;;12.57;8.07;;;;;;;38.25;15.54;99286.28;5109910;28;41640;-74
2021/04/01 09:14:57;;;;;;;13.15;8.10;;;;;;;39.28;15.08;99292.97;5111064;28;43484;-74
2021/04/01 09:17:32;;;;;;;16.00;8.23;;;;;;;39.81;14.63;99293.69;5080918;27;42830;-75
2021/04/01 09:20:11;;;;;;;11.75;8.05;;;;;;;40.65;14.42;99279.22;5121466;27;41762;-75
2021/04/01 09:22:43;;;;;;;15.90;9.15;;;;;;;40.86;13.83;99280.84;5110210;28;42201;-74
2021/04/01 09:25:12;;;;;;;9.15;7.53;;;;;;;40.30;14.26;99276.53;5108440;27;43105;-75
2021/04/01 09:27:48;;;;;;;15.70;8.30;;;;;;;39.78;14.25;99286.75;5109942;28;42532;-75
2021/04/01 09:30:16;;;;;;;13.45;8.55;;;;;;;38.65;14.80;99272.75;5091912;28;40586;-75
2021/04/01 09:32:48;;;;;;;11.77;7.28;;;;;;;37.53;15.71;99259.06;5110704;28;42139;-75
2021/04/01 09:35:17;;;;;;;11.30;7.27;;;;;;;36.25;16.80;99245.53;5092845;28;43563;-74
2021/04/01 09:37:53;;;;;;;10.77;7.10;;;;;;;35.04;17.42;99235.91;5110733;28;42327;-74
2021/04/01 09:40:28;;;;;;;10.90;7.90;;;;;;;34.72;17.92;99237.41;5093494;28;41144;-73
2021/04/01 09:43:09;;;;;;;14.27;8.00;;;;;;;35.47;17.39;99248.31;5093231;28;41847;-73
2021/04/01 09:45:36;;;;;;;20.00;9.67;;;;;;;35.84;16.92;99249.56;5110724;28;43431;-74
2021/04/01 09:48:05;;;;;;;13.60;8.00;;;;;;;35.96;16.79;99238.44;5093082;28;42966;-74
2021/04/01 09:50:34;;;;;;;12.53;7.70;;;;;;;36.02;17.09;99237.41;5093786;28;39941;-74
2021/04/01 09:53:03;;;;;;;16.87;10.60;;;;;;;35.90;16.88;99233.91;5110778;28;42179;-74
2021/04/01 09:55:40;;;;;;;11.87;9.07;;;;;;;36.18;16.67;99236.56;5092826;28;41385;-75
2021/04/01 09:58:17;;;;;;;15.50;10.37;;;;;;;36.28;16.07;99233.16;5110709;28;41740;-74
2021/04/01 10:03:34;;;;;;;13.13;10.60;;;;;;;35.64;16.34;99236.22;5092791;28;42280;-74
2021/04/01 10:06:03;;;;;;;12.40;9.33;;;;;;;35.03;17.23;99223.22;5076843;28;41971;-74
2021/04/01 10:08:32;;;;;;;15.03;10.20;;;;;;;34.83;17.46;99228.31;5110675;28;42349;-74
2021/04/01 10:11:01;;;;;;;16.17;9.93;;;;;;;34.63;17.31;99211.31;5093390;28;40536;-75
2021/04/01 10:13:42;;;;;;;15.40;12.03;;;;;;;34.99;17.52;99213.75;5093665;28;41545;-74
2021/04/01 10:16:22;;;;;;;12.50;10.57;;;;;;;35.50;16.88;99214.75;5092494;28;42678;-76
2021/04/01 10:18:49;;;;;;;12.80;11.03;;;;;;;35.62;16.49;99216.34;5110574;28;42442;-74
2021/04/01 10:21:17;;;;;;;14.60;11.73;;;;;;;35.06;16.75;99211.72;5110408;28;41637;-75
2021/04/01 10:23:45;;;;;;;15.70;12.57;;;;;;;34.33;17.05;99200.53;5110527;28;41703;-76
2021/04/01 10:26:13;;;;;;;18.77;15.03;;;;;;;33.67;17.78;99204.38;5110085;28;42564;-76
2021/04/01 10:28:58;;;;;;;20.63;14.27;;;;;;;33.34;17.78;99202.19;5091875;28;42241;-74
2021/04/01 10:31:25;;;;;;;16.57;14.40;;;;;;;33.23;18.20;99198.28;5093210;28;40569;-75
2021/04/01 10:34:04;;;;;;;17.10;13.57;;;;;;;33.48;17.97;99198.16;5110048;28;41544;-75
2021/04/01 10:36:33;;;;;;;15.37;12.73;;;;;;;34.29;18.00;99193.81;5092274;28;43196;-74
2021/04/01 10:39:08;;;;;;;13.50;12.10;;;;;;;35.01;17.05;99203.34;5110178;28;42198;-76
2021/04/01 10:41:45;;;;;;;15.67;13.43;;;;;;;35.12;16.82;99205.19;5119045;27;41211;-75
2021/04/01 10:44:14;;;;;;;14.30;12.20;;;;;;;34.78;17.06;99204.25;5111970;27;41400;-76
2021/04/01 10:46:46;;;;;;;19.10;13.37;;;;;;;34.32;16.95;99194.19;5112232;27;42758;-75
2021/04/01 10:49:14;;;;;;;15.03;13.43;;;;;;;33.82;18.21;99194.66;5130839;27;42077;-75
2021/04/01 10:51:52;;;;;;;17.50;13.13;;;;;;;33.41;18.39;99173.53;5121024;27;40763;-74
2021/04/01 10:54:19;;;;;;;13.53;12.13;;;;;;;33.03;18.93;99181.25;5092820;28;41342;-76
2021/04/01 10:56:51;;;;;;;14.07;12.40;;;;;;;32.72;19.33;99171.34;5092968;28;41609;-74
2021/04/01 10:59:32;;;;;;;16.93;13.63;;;;;;;32.45;19.13;99171.66;5092835;28;42147;-75
2021/04/01 11:02:03;;;;;;;14.40;12.90;;;;;;;32.42;19.74;99166.63;5089801;28;41045;-74
2021/04/01 11:04:32;;;;;;;17.67;14.30;;;;;;;32.53;19.48;99173.25;5089610;28;41772;-74
2021/04/01 11:07:03;;;;;;;18.57;12.63;;;;;;;32.87;19.67;99163.56;5079426;28;43484;-74
2021/04/01 11:09:32;;;;;;;15.60;11.73;;;;;;;33.11;19.82;99148.84;5110015;28;41900;-74
2021/04/01 11:12:13;;;;;;;15.23;12.60;;;;;;;33.47;19.18;99158.03;5109284;28;40608;-73
2021/04/01 11:14:47;;;;;;;17.73;14.17;;;;;;;34.19;18.87;99144.91;5110301;28;42385;-74
2021/04/01 11:17:17;;;;;;;18.50;15.93;;;;;;;35.37;17.27;99149.78;5125668;27;42233;-74
2021/04/01 11:19:46;;;;;;;20.50;15.53;;;;;;;36.33;17.00;99172.56;5110401;28;41990;-75
2021/04/01 11:22:15;;;;;;;20.20;16.20;;;;;;;37.60;15.59;99183.09;5075192;28;40909;-74
2021/04/01 11:24:43;;;;;;;16.33;14.53;;;;;;;38.72;15.08;99189.41;5109868;28;41805;-74
2021/04/01 11:27:13;;;;;;;17.37;15.57;;;;;;;38.74;14.95;99193.59;5109414;28;42306;-74
2021/04/01 11:29:42;;;;;;;16.37;14.67;;;;;;;38.76;14.38;99191.38;5109947;28;43511;-73
2021/04/01 11:32:19;;;;;;;17.63;15.83;;;;;;;39.25;14.46;99187.38;5109292;28;41761;-74
2021/04/01 11:34:48;;;;;;;17.38;15.52;;;;;;;39.93;13.78;99193.56;5109963;28;42141;-75
2021/04/01 11:37:21;;;;;;;17.50;15.68;;;;;;;39.88;13.87;99202.72;5091704;28;42686;-74
2021/04/01 11:39:50;;;;;;;21.73;18.03;;;;;;;39.47;13.86;99191.59;5091980;28;42313;-74
2021/04/01 11:42:18;;;;;;;21.47;19.13;;;;;;;38.67;14.10;99193.00;5091109;28;41441;-74
2021/04/01 11:44:46;;;;;;;21.40;17.67;;;;;;;37.73;14.31;99196.53;5109982;28;41708;-75
2021/04/01 11:47:15;;;;;;;22.23;19.90;;;;;;;36.74;14.59;99195.16;5091446;28;41768;-74
2021/04/01 11:49:42;;;;;;;22.50;17.27;;;;;;;35.89;15.71;99175.19;5091445;28;43122;-74
2021/04/01 11:52:11;;;;;;;18.13;16.20;;;;;;;35.28;16.73;99171.41;5109426;28;40976;-75
2021/04/01 11:54:39;;;;;;;19.47;17.37;;;;;;;34.88;17.18;99167.84;5091556;28;41583;-73
2021/04/01 11:57:17;;;;;;;19.23;15.90;;;;;;;34.34;17.17;99170.03;5074662;28;41770;-75
2021/04/01 12:00:03;;;;;;;20.83;17.17;;;;;;;33.74;17.36;99151.00;5091614;28;41244;-73
2021/04/01 12:02:46;;;;;;;16.77;15.03;;;;;;;33.14;18.34;99142.88;5109953;28;42000;-73
2021/04/01 12:05:14;;;;;;;18.50;16.60;;;;;;;33.11;18.45;99135.13;5094749;28;42169;-75
2021/04/01 12:07:41;;;;;;;18.70;16.63;;;;;;;33.74;17.56;99137.28;5112882;28;42789;-73
2021/04/01 12:10:13;;;;;;;18.67;16.57;;;;;;;35.85;16.48;99143.72;5113015;28;43013;-73
2021/04/01 12:12:41;;;;;;;16.97;15.00;;;;;;;37.53;15.67;99145.75;5113281;28;40545;-74
2021/04/01 12:15:09;;;;;;;18.37;16.17;;;;;;;39.65;13.98;99148.63;5112205;28;42174;-75
2021/04/01 12:17:38;;;;;;;18.67;16.77;;;;;;;41.11;12.65;99154.00;5112858;28;43182;-74
2021/04/01 12:20:12;;;;;;;18.65;16.63;;;;;;;42.14;12.49;99144.56;5094346;28;42647;-74
2021/04/01 12:22:41;;;;;;;22.15;16.25;;;;;;;42.81;11.71;99146.25;5094300;28;40983;-74
2021/04/01 12:25:13;;;;;;;18.67;14.73;;;;;;;43.32;12.02;99146.34;5078300;28;41517;-74
2021/04/01 12:27:48;;;;;;;16.48;14.80;;;;;;;43.75;11.00;99137.00;5094617;28;42844;-75
2021/04/01 12:30:23;;;;;;;17.23;15.02;;;;;;;44.03;10.75;99138.72;5112228;28;42222;-75
2021/04/01 12:32:51;;;;;;;16.67;15.07;;;;;;;44.22;10.98;99122.72;5115607;28;41696;-75
2021/04/01 12:35:19;;;;;;;17.35;14.93;;;;;;;44.46;10.24;99127.28;5127581;28;41903;-74
2021/04/01 12:37:58;;;;;;;15.27;13.70;;;;;;;44.55;9.66;99123.44;5108816;28;41708;-75